sensor_id;sensor_type;location;lat;lon;timestamp;P1;durP1;ratioP1;P2;durP2;ratioP2
83814;SDS011;73829;53.826;-3.034;2023-12-22T00:01:49;11.20;;;3.00;;
83814;SDS011;73829;53.826;-3.034;2023-12-22T00:04:20;10.50;;;2.40;;
83814;SDS011;73829;53.826;-3.034;2023-12-22T00:06:51;12.80;;;3.00;;
83814;SDS011;73829;53.826;-3.034;2023-12-22T00:09:22;11.40;;;2.40;;
83814;SDS011;73829;53.826;-3.034;2023-12-22T00:14:22;9.10;;;2.10;;
83814;SDS011;73829;53.826;-3.034;2023-12-22T00:16:53;12.90;;;2.70;;
83814;SDS011;73829;53.826;-3.034;2023-12-22T00:21:53;11.70;;;2.30;;
83814;SDS011;73829;53.826;-3.034;2023-12-22T00:24:26;9.20;;;2.60;;
83814;SDS011;73829;53.826;-3.034;2023-12-22T00:26:56;12.30;;;2.80;;
83814;SDS011;73829;53.826;-3.034;2023-12-22T00:29:28;11.50;;;2.70;;
83814;SDS011;73829;53.826;-3.034;2023-12-22T00:34:28;11.90;;;2.40;;
83814;SDS011;73829;53.826;-3.034;2023-12-22T00:36:59;9.60;;;2.30;;
83814;SDS011;73829;53.826;-3.034;2023-12-22T00:39:32;9.20;;;2.40;;
83814;SDS011;73829;53.826;-3.034;2023-12-22T00:42:03;8.60;;;2.50;;
83814;SDS011;73829;53.826;-3.034;2023-12-22T00:44:34;9.70;;;2.40;;
83814;SDS011;73829;53.826;-3.034;2023-12-22T00:47:07;8.10;;;2.40;;
83814;SDS011;73829;53.826;-3.034;2023-12-22T00:49:38;10.30;;;2.20;;
83814;SDS011;73829;53.826;-3.034;2023-12-22T00:52:09;10.60;;;2.30;;
83814;SDS011;73829;53.826;-3.034;2023-12-22T00:57:09;8.30;;;2.00;;
83814;SDS011;73829;53.826;-3.034;2023-12-22T00:59:41;12.10;;;2.80;;
83814;SDS011;73829;53.826;-3.034;2023-12-22T01:02:15;9.70;;;2.40;;
83814;SDS011;73829;53.826;-3.034;2023-12-22T01:04:48;11.10;;;2.60;;
83814;SDS011;73829;53.826;-3.034;2023-12-22T01:07:19;10.50;;;2.30;;
83814;SDS011;73829;53.826;-3.034;2023-12-22T01:09:50;9.40;;;2.40;;
83814;SDS011;73829;53.826;-3.034;2023-12-22T01:12:21;8.60;;;2.20;;
83814;SDS011;73829;53.826;-3.034;2023-12-22T01:14:52;10.90;;;2.60;;
83814;SDS011;73829;53.826;-3.034;2023-12-22T01:17:23;11.20;;;2.40;;
83814;SDS011;73829;53.826;-3.034;2023-12-22T01:19:54;9.90;;;2.50;;
83814;SDS011;73829;53.826;-3.034;2023-12-22T01:22:25;9.50;;;2.00;;
83814;SDS011;73829;53.826;-3.034;2023-12-22T01:24:56;8.90;;;2.10;;
83814;SDS011;73829;53.826;-3.034;2023-12-22T01:27:27;8.20;;;1.90;;
83814;SDS011;73829;53.826;-3.034;2023-12-22T01:29:58;11.40;;;2.80;;
83814;SDS011;73829;53.826;-3.034;2023-12-22T01:32:29;8.60;;;2.40;;
83814;SDS011;73829;53.826;-3.034;2023-12-22T01:35:02;6.80;;;1.90;;
83814;SDS011;73829;53.826;-3.034;2023-12-22T01:37:37;8.90;;;2.30;;
83814;SDS011;73829;53.826;-3.034;2023-12-22T01:40:09;11.20;;;2.30;;
83814;SDS011;73829;53.826;-3.034;2023-12-22T01:42:40;6.40;;;1.50;;
83814;SDS011;73829;53.826;-3.034;2023-12-22T01:45:11;9.80;;;2.10;;
83814;SDS011;73829;53.826;-3.034;2023-12-22T01:47:42;8.50;;;2.00;;
83814;SDS011;73829;53.826;-3.034;2023-12-22T01:50:14;6.70;;;2.00;;
83814;SDS011;73829;53.826;-3.034;2023-12-22T01:52:46;7.70;;;2.10;;
83814;SDS011;73829;53.826;-3.034;2023-12-22T01:55:17;6.80;;;1.80;;
83814;SDS011;73829;53.826;-3.034;2023-12-22T01:57:48;7.80;;;1.80;;
83814;SDS011;73829;53.826;-3.034;2023-12-22T02:00:20;7.00;;;1.80;;
83814;SDS011;73829;53.826;-3.034;2023-12-22T02:02:51;7.80;;;1.80;;
83814;SDS011;73829;53.826;-3.034;2023-12-22T02:05:23;8.30;;;1.70;;
83814;SDS011;73829;53.826;-3.034;2023-12-22T02:07:54;6.60;;;1.70;;
83814;SDS011;73829;53.826;-3.034;2023-12-22T02:12:54;4.60;;;1.40;;
83814;SDS011;73829;53.826;-3.034;2023-12-22T02:15:25;6.20;;;1.50;;
83814;SDS011;73829;53.826;-3.034;2023-12-22T02:17:58;6.00;;;1.60;;
83814;SDS011;73829;53.826;-3.034;2023-12-22T02:20:36;6.10;;;1.50;;
83814;SDS011;73829;53.826;-3.034;2023-12-22T02:23:07;7.50;;;1.50;;
83814;SDS011;73829;53.826;-3.034;2023-12-22T02:25:38;7.70;;;1.90;;
83814;SDS011;73829;53.826;-3.034;2023-12-22T02:28:09;6.50;;;1.60;;
83814;SDS011;73829;53.826;-3.034;2023-12-22T02:30:48;7.40;;;1.50;;
83814;SDS011;73829;53.826;-3.034;2023-12-22T02:33:25;7.90;;;2.10;;
83814;SDS011;73829;53.826;-3.034;2023-12-22T02:36:01;5.60;;;1.40;;
83814;SDS011;73829;53.826;-3.034;2023-12-22T02:38:36;5.80;;;1.30;;
83814;SDS011;73829;53.826;-3.034;2023-12-22T02:41:09;6.60;;;1.60;;
83814;SDS011;73829;53.826;-3.034;2023-12-22T02:43:41;7.00;;;1.50;;
83814;SDS011;73829;53.826;-3.034;2023-12-22T02:46:14;5.10;;;1.30;;
83814;SDS011;73829;53.826;-3.034;2023-12-22T02:48:46;6.30;;;1.30;;
83814;SDS011;73829;53.826;-3.034;2023-12-22T02:51:17;5.10;;;1.40;;
83814;SDS011;73829;53.826;-3.034;2023-12-22T02:53:48;7.30;;;1.60;;
83814;SDS011;73829;53.826;-3.034;2023-12-22T02:58:48;6.60;;;1.50;;
83814;SDS011;73829;53.826;-3.034;2023-12-22T03:01:19;4.20;;;1.30;;
83814;SDS011;73829;53.826;-3.034;2023-12-22T03:03:50;4.70;;;1.10;;
83814;SDS011;73829;53.826;-3.034;2023-12-22T03:06:21;6.10;;;1.50;;
83814;SDS011;73829;53.826;-3.034;2023-12-22T03:08:52;6.40;;;1.60;;
83814;SDS011;73829;53.826;-3.034;2023-12-22T03:11:23;5.50;;;1.20;;
83814;SDS011;73829;53.826;-3.034;2023-12-22T03:16:23;4.90;;;1.10;;
83814;SDS011;73829;53.826;-3.034;2023-12-22T03:18:54;5.70;;;1.20;;
83814;SDS011;73829;53.826;-3.034;2023-12-22T03:23:54;6.50;;;1.20;;
83814;SDS011;73829;53.826;-3.034;2023-12-22T03:28:56;4.70;;;1.00;;
83814;SDS011;73829;53.826;-3.034;2023-12-22T03:31:27;5.90;;;1.40;;
83814;SDS011;73829;53.826;-3.034;2023-12-22T03:36:27;3.70;;;0.90;;
83814;SDS011;73829;53.826;-3.034;2023-12-22T03:38:58;5.60;;;1.10;;
83814;SDS011;73829;53.826;-3.034;2023-12-22T03:41:29;5.50;;;1.00;;
83814;SDS011;73829;53.826;-3.034;2023-12-22T03:44:00;7.40;;;1.30;;
83814;SDS011;73829;53.826;-3.034;2023-12-22T03:49:00;4.90;;;1.10;;
83814;SDS011;73829;53.826;-3.034;2023-12-22T03:51:32;4.90;;;1.60;;
83814;SDS011;73829;53.826;-3.034;2023-12-22T03:56:32;5.80;;;1.10;;
83814;SDS011;73829;53.826;-3.034;2023-12-22T04:01:32;5.10;;;0.90;;
83814;SDS011;73829;53.826;-3.034;2023-12-22T04:06:33;6.20;;;1.20;;
83814;SDS011;73829;53.826;-3.034;2023-12-22T04:09:08;3.80;;;1.00;;
83814;SDS011;73829;53.826;-3.034;2023-12-22T04:11:40;7.40;;;1.20;;
83814;SDS011;73829;53.826;-3.034;2023-12-22T04:14:11;5.50;;;1.20;;
83814;SDS011;73829;53.826;-3.034;2023-12-22T04:16:43;6.70;;;1.30;;
83814;SDS011;73829;53.826;-3.034;2023-12-22T04:19:14;4.30;;;1.20;;
83814;SDS011;73829;53.826;-3.034;2023-12-22T04:21:45;7.20;;;1.30;;
83814;SDS011;73829;53.826;-3.034;2023-12-22T04:26:45;4.60;;;0.80;;
83814;SDS011;73829;53.826;-3.034;2023-12-22T04:29:15;5.70;;;1.50;;
83814;SDS011;73829;53.826;-3.034;2023-12-22T04:31:48;5.30;;;0.90;;
83814;SDS011;73829;53.826;-3.034;2023-12-22T04:36:48;6.30;;;1.00;;
83814;SDS011;73829;53.826;-3.034;2023-12-22T04:39:19;4.70;;;1.20;;
83814;SDS011;73829;53.826;-3.034;2023-12-22T04:44:19;5.40;;;1.20;;
83814;SDS011;73829;53.826;-3.034;2023-12-22T04:49:20;5.20;;;1.10;;
83814;SDS011;73829;53.826;-3.034;2023-12-22T04:54:20;6.50;;;1.30;;
83814;SDS011;73829;53.826;-3.034;2023-12-22T04:56:51;5.00;;;1.40;;
83814;SDS011;73829;53.826;-3.034;2023-12-22T05:01:51;3.80;;;1.20;;
83814;SDS011;73829;53.826;-3.034;2023-12-22T05:04:22;4.10;;;1.10;;
83814;SDS011;73829;53.826;-3.034;2023-12-22T05:09:23;5.70;;;1.20;;
83814;SDS011;73829;53.826;-3.034;2023-12-22T05:11:55;4.40;;;1.20;;
83814;SDS011;73829;53.826;-3.034;2023-12-22T05:16:55;6.30;;;1.20;;
83814;SDS011;73829;53.826;-3.034;2023-12-22T05:19:26;5.20;;;1.10;;
83814;SDS011;73829;53.826;-3.034;2023-12-22T05:24:26;5.30;;;1.00;;
83814;SDS011;73829;53.826;-3.034;2023-12-22T05:29:26;5.70;;;1.00;;
83814;SDS011;73829;53.826;-3.034;2023-12-22T05:34:27;6.70;;;1.30;;
83814;SDS011;73829;53.826;-3.034;2023-12-22T05:36:59;6.30;;;1.50;;
83814;SDS011;73829;53.826;-3.034;2023-12-22T05:41:59;6.80;;;0.90;;
83814;SDS011;73829;53.826;-3.034;2023-12-22T05:44:30;5.60;;;1.20;;
83814;SDS011;73829;53.826;-3.034;2023-12-22T05:47:01;5.40;;;1.30;;
83814;SDS011;73829;53.826;-3.034;2023-12-22T05:49:33;6.10;;;1.30;;
83814;SDS011;73829;53.826;-3.034;2023-12-22T05:52:04;4.60;;;1.20;;
83814;SDS011;73829;53.826;-3.034;2023-12-22T05:54:38;5.40;;;1.30;;
83814;SDS011;73829;53.826;-3.034;2023-12-22T05:57:09;5.80;;;1.20;;
83814;SDS011;73829;53.826;-3.034;2023-12-22T05:59:40;6.70;;;1.40;;
83814;SDS011;73829;53.826;-3.034;2023-12-22T06:02:11;5.60;;;0.90;;
83814;SDS011;73829;53.826;-3.034;2023-12-22T06:04:42;5.20;;;1.20;;
83814;SDS011;73829;53.826;-3.034;2023-12-22T06:07:13;6.10;;;1.40;;
83814;SDS011;73829;53.826;-3.034;2023-12-22T06:09:44;7.80;;;1.40;;
83814;SDS011;73829;53.826;-3.034;2023-12-22T06:12:15;6.60;;;1.40;;
83814;SDS011;73829;53.826;-3.034;2023-12-22T06:14:46;6.50;;;1.40;;
83814;SDS011;73829;53.826;-3.034;2023-12-22T06:19:47;5.10;;;1.10;;
83814;SDS011;73829;53.826;-3.034;2023-12-22T06:22:18;7.60;;;1.50;;
83814;SDS011;73829;53.826;-3.034;2023-12-22T06:24:50;6.10;;;1.30;;
83814;SDS011;73829;53.826;-3.034;2023-12-22T06:27:22;7.00;;;1.30;;
83814;SDS011;73829;53.826;-3.034;2023-12-22T06:32:23;7.70;;;1.30;;
83814;SDS011;73829;53.826;-3.034;2023-12-22T06:34:54;6.20;;;1.10;;
83814;SDS011;73829;53.826;-3.034;2023-12-22T06:37:27;4.90;;;0.90;;
83814;SDS011;73829;53.826;-3.034;2023-12-22T06:39:58;6.60;;;1.60;;
83814;SDS011;73829;53.826;-3.034;2023-12-22T06:44:58;6.30;;;1.50;;
83814;SDS011;73829;53.826;-3.034;2023-12-22T06:47:29;8.00;;;1.50;;
83814;SDS011;73829;53.826;-3.034;2023-12-22T06:50:00;6.20;;;1.60;;
83814;SDS011;73829;53.826;-3.034;2023-12-22T06:52:31;8.00;;;1.70;;
83814;SDS011;73829;53.826;-3.034;2023-12-22T06:57:31;6.70;;;1.20;;
83814;SDS011;73829;53.826;-3.034;2023-12-22T07:00:03;3.60;;;0.80;;
83814;SDS011;73829;53.826;-3.034;2023-12-22T07:02:35;5.50;;;1.00;;
83814;SDS011;73829;53.826;-3.034;2023-12-22T07:08:06;5.60;;;1.10;;
83814;SDS011;73829;53.826;-3.034;2023-12-22T07:10:37;6.40;;;1.20;;
83814;SDS011;73829;53.826;-3.034;2023-12-22T07:13:08;6.00;;;1.20;;
83814;SDS011;73829;53.826;-3.034;2023-12-22T07:15:39;6.40;;;1.70;;
83814;SDS011;73829;53.826;-3.034;2023-12-22T07:20:39;4.50;;;1.00;;
83814;SDS011;73829;53.826;-3.034;2023-12-22T07:23:11;6.20;;;1.20;;
83814;SDS011;73829;53.826;-3.034;2023-12-22T07:25:42;5.30;;;1.20;;
83814;SDS011;73829;53.826;-3.034;2023-12-22T07:30:43;7.30;;;2.30;;
83814;SDS011;73829;53.826;-3.034;2023-12-22T07:33:14;8.80;;;1.50;;
83814;SDS011;73829;53.826;-3.034;2023-12-22T07:35:45;7.90;;;1.50;;
83814;SDS011;73829;53.826;-3.034;2023-12-22T07:40:45;6.90;;;2.40;;
83814;SDS011;73829;53.826;-3.034;2023-12-22T07:43:17;6.90;;;1.50;;
83814;SDS011;73829;53.826;-3.034;2023-12-22T07:48:18;7.60;;;1.10;;
83814;SDS011;73829;53.826;-3.034;2023-12-22T07:50:49;7.60;;;1.60;;
83814;SDS011;73829;53.826;-3.034;2023-12-22T07:53:21;6.30;;;1.40;;
83814;SDS011;73829;53.826;-3.034;2023-12-22T07:55:52;6.90;;;1.50;;
83814;SDS011;73829;53.826;-3.034;2023-12-22T07:58:23;6.70;;;1.30;;
83814;SDS011;73829;53.826;-3.034;2023-12-22T08:00:54;9.50;;;1.70;;
83814;SDS011;73829;53.826;-3.034;2023-12-22T08:03:26;4.70;;;1.10;;
83814;SDS011;73829;53.826;-3.034;2023-12-22T08:05:57;6.40;;;1.30;;
83814;SDS011;73829;53.826;-3.034;2023-12-22T08:08:28;9.50;;;1.80;;
83814;SDS011;73829;53.826;-3.034;2023-12-22T08:10:59;8.60;;;1.60;;
83814;SDS011;73829;53.826;-3.034;2023-12-22T08:13:30;7.90;;;1.50;;
83814;SDS011;73829;53.826;-3.034;2023-12-22T08:16:00;7.70;;;1.90;;
83814;SDS011;73829;53.826;-3.034;2023-12-22T08:18:32;8.70;;;1.70;;
83814;SDS011;73829;53.826;-3.034;2023-12-22T08:21:03;6.00;;;1.60;;
83814;SDS011;73829;53.826;-3.034;2023-12-22T08:23:34;7.00;;;1.50;;
83814;SDS011;73829;53.826;-3.034;2023-12-22T08:28:34;7.70;;;1.30;;
83814;SDS011;73829;53.826;-3.034;2023-12-22T08:31:06;6.60;;;1.70;;
83814;SDS011;73829;53.826;-3.034;2023-12-22T08:36:08;10.10;;;1.90;;
83814;SDS011;73829;53.826;-3.034;2023-12-22T08:38:39;6.60;;;1.30;;
83814;SDS011;73829;53.826;-3.034;2023-12-22T08:43:40;6.50;;;1.30;;
83814;SDS011;73829;53.826;-3.034;2023-12-22T08:46:11;7.60;;;1.50;;
83814;SDS011;73829;53.826;-3.034;2023-12-22T08:48:42;5.90;;;1.40;;
83814;SDS011;73829;53.826;-3.034;2023-12-22T08:53:42;5.60;;;1.20;;
83814;SDS011;73829;53.826;-3.034;2023-12-22T08:56:13;8.60;;;1.60;;
83814;SDS011;73829;53.826;-3.034;2023-12-22T08:58:45;9.40;;;1.60;;
83814;SDS011;73829;53.826;-3.034;2023-12-22T09:01:18;7.20;;;1.20;;
83814;SDS011;73829;53.826;-3.034;2023-12-22T09:03:50;6.50;;;1.40;;
83814;SDS011;73829;53.826;-3.034;2023-12-22T09:06:21;7.40;;;1.80;;
83814;SDS011;73829;53.826;-3.034;2023-12-22T09:08:53;9.90;;;1.80;;
83814;SDS011;73829;53.826;-3.034;2023-12-22T09:13:54;6.90;;;1.30;;
83814;SDS011;73829;53.826;-3.034;2023-12-22T09:16:25;8.30;;;1.90;;
83814;SDS011;73829;53.826;-3.034;2023-12-22T09:18:56;8.90;;;2.20;;
83814;SDS011;73829;53.826;-3.034;2023-12-22T09:21:27;7.50;;;1.50;;
83814;SDS011;73829;53.826;-3.034;2023-12-22T09:23:58;13.10;;;2.60;;
83814;SDS011;73829;53.826;-3.034;2023-12-22T09:26:29;6.40;;;1.70;;
83814;SDS011;73829;53.826;-3.034;2023-12-22T09:29:01;10.10;;;1.90;;
83814;SDS011;73829;53.826;-3.034;2023-12-22T09:31:32;10.50;;;2.00;;
83814;SDS011;73829;53.826;-3.034;2023-12-22T09:34:03;8.70;;;1.90;;
83814;SDS011;73829;53.826;-3.034;2023-12-22T09:36:34;8.80;;;2.10;;
83814;SDS011;73829;53.826;-3.034;2023-12-22T09:41:34;9.00;;;1.90;;
83814;SDS011;73829;53.826;-3.034;2023-12-22T09:46:34;7.40;;;1.60;;
83814;SDS011;73829;53.826;-3.034;2023-12-22T09:49:06;7.60;;;1.70;;
83814;SDS011;73829;53.826;-3.034;2023-12-22T09:51:38;8.50;;;1.60;;
83814;SDS011;73829;53.826;-3.034;2023-12-22T09:54:12;10.30;;;1.60;;
83814;SDS011;73829;53.826;-3.034;2023-12-22T09:56:44;7.50;;;2.00;;
83814;SDS011;73829;53.826;-3.034;2023-12-22T09:59:16;8.00;;;2.10;;
83814;SDS011;73829;53.826;-3.034;2023-12-22T10:01:48;11.80;;;2.30;;
83814;SDS011;73829;53.826;-3.034;2023-12-22T10:04:21;7.00;;;2.20;;
83814;SDS011;73829;53.826;-3.034;2023-12-22T10:06:52;11.90;;;3.20;;
83814;SDS011;73829;53.826;-3.034;2023-12-22T10:09:28;13.60;;;2.90;;
83814;SDS011;73829;53.826;-3.034;2023-12-22T10:12:00;14.30;;;3.30;;
83814;SDS011;73829;53.826;-3.034;2023-12-22T10:14:32;11.60;;;2.70;;
83814;SDS011;73829;53.826;-3.034;2023-12-22T10:17:05;13.50;;;3.20;;
83814;SDS011;73829;53.826;-3.034;2023-12-22T10:19:36;8.50;;;2.60;;
83814;SDS011;73829;53.826;-3.034;2023-12-22T10:22:08;11.60;;;2.80;;
83814;SDS011;73829;53.826;-3.034;2023-12-22T10:24:39;10.60;;;3.20;;
83814;SDS011;73829;53.826;-3.034;2023-12-22T10:27:11;10.30;;;2.40;;
83814;SDS011;73829;53.826;-3.034;2023-12-22T10:29:44;10.20;;;2.30;;
83814;SDS011;73829;53.826;-3.034;2023-12-22T10:32:16;13.50;;;3.30;;
83814;SDS011;73829;53.826;-3.034;2023-12-22T10:34:47;13.90;;;3.40;;
83814;SDS011;73829;53.826;-3.034;2023-12-22T10:37:20;9.40;;;2.80;;
83814;SDS011;73829;53.826;-3.034;2023-12-22T10:39:53;10.40;;;2.40;;
83814;SDS011;73829;53.826;-3.034;2023-12-22T10:42:25;10.40;;;2.50;;
83814;SDS011;73829;53.826;-3.034;2023-12-22T10:44:56;8.70;;;2.90;;
83814;SDS011;73829;53.826;-3.034;2023-12-22T10:47:29;8.60;;;2.40;;
83814;SDS011;73829;53.826;-3.034;2023-12-22T10:50:02;11.10;;;2.40;;
83814;SDS011;73829;53.826;-3.034;2023-12-22T10:52:34;10.20;;;2.50;;
83814;SDS011;73829;53.826;-3.034;2023-12-22T10:55:05;7.20;;;2.20;;
83814;SDS011;73829;53.826;-3.034;2023-12-22T10:57:37;9.20;;;2.20;;
83814;SDS011;73829;53.826;-3.034;2023-12-22T11:00:09;9.30;;;2.50;;
83814;SDS011;73829;53.826;-3.034;2023-12-22T11:02:44;8.70;;;2.30;;
83814;SDS011;73829;53.826;-3.034;2023-12-22T11:05:18;9.80;;;2.50;;
83814;SDS011;73829;53.826;-3.034;2023-12-22T11:07:53;9.50;;;2.80;;
83814;SDS011;73829;53.826;-3.034;2023-12-22T11:10:30;11.00;;;2.30;;
83814;SDS011;73829;53.826;-3.034;2023-12-22T11:13:02;6.80;;;1.80;;
83814;SDS011;73829;53.826;-3.034;2023-12-22T11:15:35;8.70;;;2.00;;
83814;SDS011;73829;53.826;-3.034;2023-12-22T11:18:06;10.80;;;2.70;;
83814;SDS011;73829;53.826;-3.034;2023-12-22T11:20:38;8.90;;;2.20;;
83814;SDS011;73829;53.826;-3.034;2023-12-22T11:23:10;8.20;;;1.90;;
83814;SDS011;73829;53.826;-3.034;2023-12-22T11:25:43;8.70;;;2.10;;
83814;SDS011;73829;53.826;-3.034;2023-12-22T11:28:18;8.20;;;1.90;;
83814;SDS011;73829;53.826;-3.034;2023-12-22T11:30:50;7.00;;;1.90;;
83814;SDS011;73829;53.826;-3.034;2023-12-22T11:33:23;10.10;;;2.30;;
83814;SDS011;73829;53.826;-3.034;2023-12-22T11:35:58;9.00;;;2.20;;
83814;SDS011;73829;53.826;-3.034;2023-12-22T11:38:30;8.90;;;2.00;;
83814;SDS011;73829;53.826;-3.034;2023-12-22T11:41:02;6.50;;;1.70;;
83814;SDS011;73829;53.826;-3.034;2023-12-22T11:43:34;9.50;;;1.80;;
83814;SDS011;73829;53.826;-3.034;2023-12-22T11:46:06;11.10;;;2.60;;
83814;SDS011;73829;53.826;-3.034;2023-12-22T11:48:38;8.90;;;2.10;;
83814;SDS011;73829;53.826;-3.034;2023-12-22T11:51:15;9.30;;;2.10;;
83814;SDS011;73829;53.826;-3.034;2023-12-22T11:53:48;6.80;;;1.90;;
83814;SDS011;73829;53.826;-3.034;2023-12-22T11:56:18;8.90;;;2.10;;
83814;SDS011;73829;53.826;-3.034;2023-12-22T11:58:51;7.70;;;1.90;;
83814;SDS011;73829;53.826;-3.034;2023-12-22T12:01:25;7.80;;;1.40;;
83814;SDS011;73829;53.826;-3.034;2023-12-22T12:04:00;9.70;;;1.90;;
83814;SDS011;73829;53.826;-3.034;2023-12-22T12:06:33;8.60;;;1.60;;
83814;SDS011;73829;53.826;-3.034;2023-12-22T12:09:06;7.50;;;1.60;;
83814;SDS011;73829;53.826;-3.034;2023-12-22T12:14:45;8.40;;;1.70;;
83814;SDS011;73829;53.826;-3.034;2023-12-22T12:17:22;7.90;;;1.60;;
83814;SDS011;73829;53.826;-3.034;2023-12-22T12:19:54;7.00;;;2.00;;
83814;SDS011;73829;53.826;-3.034;2023-12-22T12:22:27;7.80;;;1.80;;
83814;SDS011;73829;53.826;-3.034;2023-12-22T12:24:58;8.20;;;2.50;;
83814;SDS011;73829;53.826;-3.034;2023-12-22T12:27:30;6.70;;;1.50;;
83814;SDS011;73829;53.826;-3.034;2023-12-22T12:30:05;6.40;;;1.50;;
83814;SDS011;73829;53.826;-3.034;2023-12-22T12:32:44;6.60;;;1.70;;
83814;SDS011;73829;53.826;-3.034;2023-12-22T12:35:17;7.40;;;1.90;;
83814;SDS011;73829;53.826;-3.034;2023-12-22T12:37:51;7.80;;;1.60;;
83814;SDS011;73829;53.826;-3.034;2023-12-22T12:40:23;7.30;;;2.10;;
83814;SDS011;73829;53.826;-3.034;2023-12-22T12:42:57;7.60;;;1.80;;
83814;SDS011;73829;53.826;-3.034;2023-12-22T12:45:28;6.40;;;1.90;;
83814;SDS011;73829;53.826;-3.034;2023-12-22T12:48:00;8.20;;;1.70;;
83814;SDS011;73829;53.826;-3.034;2023-12-22T12:50:31;8.20;;;1.90;;
83814;SDS011;73829;53.826;-3.034;2023-12-22T12:53:04;7.30;;;1.90;;
83814;SDS011;73829;53.826;-3.034;2023-12-22T12:55:36;8.30;;;2.20;;
83814;SDS011;73829;53.826;-3.034;2023-12-22T12:58:07;6.70;;;2.00;;
83814;SDS011;73829;53.826;-3.034;2023-12-22T13:00:38;15.50;;;2.60;;
83814;SDS011;73829;53.826;-3.034;2023-12-22T13:03:09;10.90;;;2.70;;
83814;SDS011;73829;53.826;-3.034;2023-12-22T13:05:40;8.50;;;3.10;;
83814;SDS011;73829;53.826;-3.034;2023-12-22T13:08:11;9.60;;;3.60;;
83814;SDS011;73829;53.826;-3.034;2023-12-22T13:10:43;8.70;;;3.00;;
83814;SDS011;73829;53.826;-3.034;2023-12-22T13:13:15;9.60;;;3.10;;
83814;SDS011;73829;53.826;-3.034;2023-12-22T13:15:46;8.60;;;3.60;;
83814;SDS011;73829;53.826;-3.034;2023-12-22T13:18:17;10.00;;;3.50;;
83814;SDS011;73829;53.826;-3.034;2023-12-22T13:20:48;9.20;;;3.20;;
83814;SDS011;73829;53.826;-3.034;2023-12-22T13:23:19;9.90;;;3.20;;
83814;SDS011;73829;53.826;-3.034;2023-12-22T13:25:50;12.10;;;3.10;;
83814;SDS011;73829;53.826;-3.034;2023-12-22T13:28:26;9.80;;;3.20;;
83814;SDS011;73829;53.826;-3.034;2023-12-22T13:30:57;10.20;;;3.10;;
83814;SDS011;73829;53.826;-3.034;2023-12-22T13:33:33;9.50;;;3.00;;
83814;SDS011;73829;53.826;-3.034;2023-12-22T13:36:05;10.30;;;2.70;;
83814;SDS011;73829;53.826;-3.034;2023-12-22T13:38:36;8.50;;;2.70;;
83814;SDS011;73829;53.826;-3.034;2023-12-22T13:41:08;9.30;;;2.60;;
83814;SDS011;73829;53.826;-3.034;2023-12-22T13:43:39;7.10;;;2.60;;
83814;SDS011;73829;53.826;-3.034;2023-12-22T13:46:12;10.40;;;2.80;;
83814;SDS011;73829;53.826;-3.034;2023-12-22T13:48:43;9.40;;;2.80;;
83814;SDS011;73829;53.826;-3.034;2023-12-22T13:51:15;8.40;;;2.60;;
83814;SDS011;73829;53.826;-3.034;2023-12-22T13:53:49;10.30;;;2.50;;
83814;SDS011;73829;53.826;-3.034;2023-12-22T13:56:20;7.40;;;2.40;;
83814;SDS011;73829;53.826;-3.034;2023-12-22T13:58:51;8.60;;;2.50;;
83814;SDS011;73829;53.826;-3.034;2023-12-22T14:01:22;7.70;;;2.30;;
83814;SDS011;73829;53.826;-3.034;2023-12-22T14:03:53;8.40;;;2.60;;
83814;SDS011;73829;53.826;-3.034;2023-12-22T14:06:25;7.40;;;2.20;;
83814;SDS011;73829;53.826;-3.034;2023-12-22T14:08:57;8.50;;;2.20;;
83814;SDS011;73829;53.826;-3.034;2023-12-22T14:11:28;8.00;;;2.50;;
83814;SDS011;73829;53.826;-3.034;2023-12-22T14:13:59;8.80;;;2.10;;
83814;SDS011;73829;53.826;-3.034;2023-12-22T14:16:30;9.10;;;2.00;;
83814;SDS011;73829;53.826;-3.034;2023-12-22T14:19:01;9.90;;;1.90;;
83814;SDS011;73829;53.826;-3.034;2023-12-22T14:21:32;9.80;;;2.50;;
83814;SDS011;73829;53.826;-3.034;2023-12-22T14:24:03;9.70;;;2.30;;
83814;SDS011;73829;53.826;-3.034;2023-12-22T14:29:23;6.90;;;1.60;;
83814;SDS011;73829;53.826;-3.034;2023-12-22T14:31:54;8.80;;;2.20;;
83814;SDS011;73829;53.826;-3.034;2023-12-22T14:34:25;11.00;;;2.30;;
83814;SDS011;73829;53.826;-3.034;2023-12-22T14:36:57;7.60;;;2.00;;
83814;SDS011;73829;53.826;-3.034;2023-12-22T14:39:28;8.50;;;1.90;;
83814;SDS011;73829;53.826;-3.034;2023-12-22T14:42:01;6.30;;;1.90;;
83814;SDS011;73829;53.826;-3.034;2023-12-22T14:44:32;8.00;;;2.00;;
83814;SDS011;73829;53.826;-3.034;2023-12-22T14:47:03;6.30;;;1.80;;
83814;SDS011;73829;53.826;-3.034;2023-12-22T14:49:35;7.90;;;1.90;;
83814;SDS011;73829;53.826;-3.034;2023-12-22T14:52:06;11.50;;;2.10;;
83814;SDS011;73829;53.826;-3.034;2023-12-22T14:54:37;8.20;;;1.90;;
83814;SDS011;73829;53.826;-3.034;2023-12-22T14:57:08;8.70;;;2.30;;
83814;SDS011;73829;53.826;-3.034;2023-12-22T14:59:38;6.50;;;1.80;;
83814;SDS011;73829;53.826;-3.034;2023-12-22T15:02:09;10.30;;;1.90;;
83814;SDS011;73829;53.826;-3.034;2023-12-22T15:04:40;6.60;;;1.80;;
83814;SDS011;73829;53.826;-3.034;2023-12-22T15:07:13;7.00;;;1.70;;
83814;SDS011;73829;53.826;-3.034;2023-12-22T15:09:45;6.90;;;1.80;;
83814;SDS011;73829;53.826;-3.034;2023-12-22T15:12:16;9.40;;;1.90;;
83814;SDS011;73829;53.826;-3.034;2023-12-22T15:14:47;5.20;;;1.60;;
83814;SDS011;73829;53.826;-3.034;2023-12-22T15:17:18;8.20;;;1.80;;
83814;SDS011;73829;53.826;-3.034;2023-12-22T15:19:49;8.50;;;1.90;;
83814;SDS011;73829;53.826;-3.034;2023-12-22T15:22:20;9.10;;;2.10;;
83814;SDS011;73829;53.826;-3.034;2023-12-22T15:24:52;10.50;;;2.10;;
83814;SDS011;73829;53.826;-3.034;2023-12-22T15:29:52;5.10;;;1.30;;
83814;SDS011;73829;53.826;-3.034;2023-12-22T15:32:23;7.00;;;1.60;;
83814;SDS011;73829;53.826;-3.034;2023-12-22T15:34:54;8.30;;;1.90;;
83814;SDS011;73829;53.826;-3.034;2023-12-22T15:37:25;6.20;;;1.80;;
83814;SDS011;73829;53.826;-3.034;2023-12-22T15:39:56;8.50;;;2.20;;
83814;SDS011;73829;53.826;-3.034;2023-12-22T15:42:27;10.30;;;2.20;;
83814;SDS011;73829;53.826;-3.034;2023-12-22T15:44:58;7.60;;;1.60;;
83814;SDS011;73829;53.826;-3.034;2023-12-22T15:47:29;9.00;;;1.90;;
83814;SDS011;73829;53.826;-3.034;2023-12-22T15:50:00;10.60;;;2.40;;
83814;SDS011;73829;53.826;-3.034;2023-12-22T15:52:31;9.00;;;2.20;;
83814;SDS011;73829;53.826;-3.034;2023-12-22T15:55:02;7.10;;;1.90;;
83814;SDS011;73829;53.826;-3.034;2023-12-22T15:57:34;7.90;;;2.70;;
83814;SDS011;73829;53.826;-3.034;2023-12-22T16:00:06;6.70;;;1.60;;
83814;SDS011;73829;53.826;-3.034;2023-12-22T16:02:38;7.80;;;2.00;;
83814;SDS011;73829;53.826;-3.034;2023-12-22T16:05:09;7.00;;;1.40;;
83814;SDS011;73829;53.826;-3.034;2023-12-22T16:07:40;7.70;;;2.10;;
83814;SDS011;73829;53.826;-3.034;2023-12-22T16:10:11;8.70;;;1.80;;
83814;SDS011;73829;53.826;-3.034;2023-12-22T16:12:42;7.40;;;1.60;;
83814;SDS011;73829;53.826;-3.034;2023-12-22T16:15:13;7.90;;;2.20;;
83814;SDS011;73829;53.826;-3.034;2023-12-22T16:17:44;9.40;;;2.40;;
83814;SDS011;73829;53.826;-3.034;2023-12-22T16:20:16;15.60;;;3.00;;
83814;SDS011;73829;53.826;-3.034;2023-12-22T16:22:47;11.60;;;3.10;;
83814;SDS011;73829;53.826;-3.034;2023-12-22T16:25:18;11.40;;;3.40;;
83814;SDS011;73829;53.826;-3.034;2023-12-22T16:27:49;12.00;;;3.60;;
83814;SDS011;73829;53.826;-3.034;2023-12-22T16:30:20;13.30;;;3.90;;
83814;SDS011;73829;53.826;-3.034;2023-12-22T16:32:51;14.10;;;3.90;;
83814;SDS011;73829;53.826;-3.034;2023-12-22T16:35:22;18.50;;;4.70;;
83814;SDS011;73829;53.826;-3.034;2023-12-22T16:37:53;13.90;;;4.90;;
83814;SDS011;73829;53.826;-3.034;2023-12-22T16:40:24;16.70;;;4.60;;
83814;SDS011;73829;53.826;-3.034;2023-12-22T16:42:55;15.60;;;5.00;;
83814;SDS011;73829;53.826;-3.034;2023-12-22T16:45:25;14.80;;;4.70;;
83814;SDS011;73829;53.826;-3.034;2023-12-22T16:47:56;21.40;;;5.90;;
83814;SDS011;73829;53.826;-3.034;2023-12-22T16:50:28;21.90;;;6.80;;